Aviation Digital Data Service (ADDS)

Output produced by METARs form (1602 UTC 31 August 2016)
found at http://aviationweather.gov/adds/metars/
 
KMSS 311559Z 3116/0112 23010KT P6SM VCSH SCT015 BKN045 
     TEMPO 3116/3118 BKN015 
     FM312200 25006KT P6SM SCT045 BKN070 
     FM010000 27005KT P6SM BKN045 
     FM010400 32004KT P6SM BKN035 OVC050